createdAt,value
2019-01-03T00:01:32.142Z,2.27
2019-01-03T00:04:22.096Z,2.70
2019-01-03T00:07:15.929Z,1.90
2019-01-03T00:10:02.974Z,2.40
2019-01-03T00:12:49.677Z,2.20
2019-01-03T00:15:36.789Z,1.70
2019-01-03T00:18:34.073Z,2.63
2019-01-03T00:21:20.482Z,2.20
2019-01-03T00:24:23.686Z,2.20
2019-01-03T00:27:13.596Z,2.43
2019-01-03T00:30:00.161Z,2.33
2019-01-03T00:32:48.801Z,2.30
2019-01-03T00:35:35.061Z,2.90
2019-01-03T00:38:21.707Z,2.20
2019-01-03T00:41:12.787Z,2.30
2019-01-03T00:44:20.567Z,2.20
2019-01-03T00:47:01.044Z,2.60
2019-01-03T00:49:54.086Z,2.27
2019-01-03T00:52:54.692Z,2.20
2019-01-03T00:55:48.483Z,2.30
2019-01-03T00:58:33.651Z,2.00
2019-01-03T01:01:20.278Z,2.50
2019-01-03T01:04:09.976Z,2.03
2019-01-03T01:06:54.565Z,2.10
2019-01-03T01:10:02.846Z,2.60
2019-01-03T01:12:59.757Z,2.10
2019-01-03T01:15:43.808Z,2.57
2019-01-03T01:18:27.005Z,2.40
2019-01-03T01:21:13.470Z,2.53
2019-01-03T01:24:16.673Z,2.00
2019-01-03T01:27:13.721Z,2.77
2019-01-03T01:30:00.191Z,2.47
2019-01-03T01:32:46.823Z,2.80
2019-01-03T01:35:47.094Z,2.70
2019-01-03T01:38:37.857Z,3.13
2019-01-03T01:41:39.786Z,3.50
2019-01-03T01:44:22.905Z,2.60
2019-01-03T01:47:09.956Z,3.17
2019-01-03T01:49:59.402Z,2.90
2019-01-03T01:52:47.540Z,2.50
2019-01-03T01:55:34.204Z,2.67
2019-01-03T01:58:29.342Z,3.27
2019-01-03T02:01:15.983Z,3.00
2019-01-03T02:04:05.853Z,2.77
2019-01-03T02:07:09.362Z,2.93
2019-01-03T02:10:19.733Z,2.97
2019-01-03T02:13:10.475Z,2.87
2019-01-03T02:15:54.157Z,2.50
2019-01-03T02:18:44.884Z,2.87
2019-01-03T02:21:31.217Z,2.40
2019-01-03T02:24:24.584Z,2.97
2019-01-03T02:27:18.442Z,2.60
2019-01-03T02:30:15.461Z,2.70
2019-01-03T02:32:56.590Z,2.63
2019-01-03T02:35:50.455Z,2.67
2019-01-03T02:38:53.249Z,2.80
2019-01-03T02:41:40.069Z,2.67
2019-01-03T02:44:27.214Z,2.40
2019-01-03T02:47:14.160Z,2.87
2019-01-03T02:50:09.069Z,2.53
2019-01-03T02:52:57.316Z,3.10
2019-01-03T02:55:53.252Z,2.20
2019-01-03T02:58:41.467Z,2.67
2019-01-03T03:01:29.386Z,2.53
2019-01-03T03:04:21.769Z,2.70
2019-01-03T03:07:11.923Z,2.53
2019-01-03T03:10:09.794Z,2.77
2019-01-03T03:12:47.898Z,2.73
2019-01-03T03:15:37.301Z,2.70
2019-01-03T03:18:15.225Z,2.57
2019-01-03T03:21:05.943Z,2.77
2019-01-03T03:23:52.300Z,2.27
2019-01-03T03:26:29.670Z,2.07
2019-01-03T03:29:16.204Z,2.10
2019-01-03T03:32:13.250Z,2.27
2019-01-03T03:35:02.644Z,1.77
2019-01-03T03:38:02.612Z,2.30
2019-01-03T03:40:52.209Z,2.17
2019-01-03T03:43:38.764Z,1.90
2019-01-03T03:46:38.861Z,2.27
2019-01-03T03:49:38.980Z,2.40
2019-01-03T03:52:33.022Z,2.13
2019-01-03T03:55:18.793Z,2.30
2019-01-03T03:58:11.273Z,2.53
2019-01-03T04:00:57.840Z,2.47
2019-01-03T04:03:44.616Z,2.10
2019-01-03T04:06:38.333Z,2.60
2019-01-03T04:09:28.052Z,2.33
2019-01-03T04:12:14.707Z,2.20
2019-01-03T04:15:02.614Z,3.00
2019-01-03T04:17:56.473Z,2.40
2019-01-03T04:20:47.173Z,2.97
2019-01-03T04:23:35.052Z,2.60
2019-01-03T04:26:24.707Z,3.17
2019-01-03T04:29:18.621Z,2.47
2019-01-03T04:32:21.541Z,3.10
2019-01-03T04:35:24.636Z,3.17
2019-01-03T04:38:18.653Z,3.77
2019-01-03T04:40:57.614Z,3.60
2019-01-03T04:43:44.429Z,3.93
2019-01-03T04:46:31.145Z,3.20
2019-01-03T04:49:28.181Z,3.97
2019-01-03T04:52:10.278Z,3.50
2019-01-03T04:55:01.151Z,3.80
2019-01-03T04:57:49.041Z,3.63
2019-01-03T05:00:40.132Z,4.00
2019-01-03T05:03:26.398Z,3.63
2019-01-03T05:06:34.485Z,4.00
2019-01-03T05:09:21.124Z,4.60
2019-01-03T05:12:17.852Z,4.83
2019-01-03T05:15:04.423Z,5.67
2019-01-03T05:17:50.792Z,6.03
2019-01-03T05:20:45.286Z,6.00
2019-01-03T05:23:31.635Z,5.93
2019-01-03T05:26:26.826Z,7.50
2019-01-03T05:29:20.911Z,6.40
2019-01-03T05:32:15.140Z,6.87
2019-01-03T05:35:09.141Z,7.30
2019-01-03T05:38:15.422Z,7.43
2019-01-03T05:41:18.209Z,7.37
2019-01-03T05:44:14.466Z,7.67
2019-01-03T05:47:03.970Z,9.13
2019-01-03T05:49:50.794Z,10.10
2019-01-03T05:52:37.395Z,9.60
2019-01-03T05:55:37.605Z,10.73
2019-01-03T05:58:22.305Z,10.43
2019-01-03T06:01:08.880Z,10.43
2019-01-03T06:04:08.828Z,11.27
2019-01-03T06:07:14.621Z,12.00
2019-01-03T06:10:01.730Z,12.93
2019-01-03T06:12:48.310Z,13.43
2019-01-03T06:15:34.860Z,13.13
2019-01-03T06:18:32.090Z,14.30
2019-01-03T06:21:20.007Z,14.50
2019-01-03T06:24:07.904Z,15.63
2019-01-03T06:27:02.545Z,14.63
2019-01-03T06:29:56.468Z,16.33
2019-01-03T06:32:40.214Z,17.83
2019-01-03T06:35:46.565Z,17.93
2019-01-03T06:38:41.183Z,18.53
2019-01-03T06:41:35.465Z,19.40
2019-01-03T06:44:24.813Z,20.07
2019-01-03T06:47:12.891Z,21.10
2019-01-03T06:49:59.272Z,22.57
2019-01-03T06:52:45.327Z,22.60
2019-01-03T06:55:49.721Z,23.77
2019-01-03T06:58:37.677Z,22.83
2019-01-03T07:01:28.486Z,23.87
2019-01-03T07:04:19.742Z,23.97
2019-01-03T07:07:06.292Z,24.30
2019-01-03T07:09:52.810Z,25.33
2019-01-03T07:12:39.824Z,26.03
2019-01-03T07:15:26.669Z,24.70
2019-01-03T07:18:13.036Z,25.17
2019-01-03T07:21:13.300Z,26.03
2019-01-03T07:23:59.548Z,27.23
2019-01-03T07:26:46.165Z,27.77
2019-01-03T07:29:35.790Z,28.07
2019-01-03T07:32:30.001Z,28.90
2019-01-03T07:35:37.088Z,29.80
2019-01-03T07:38:27.716Z,27.77
2019-01-03T07:41:19.594Z,27.93
2019-01-03T07:44:09.573Z,27.43
2019-01-03T07:46:56.543Z,28.20
2019-01-03T07:49:50.554Z,28.07
2019-01-03T07:52:36.936Z,28.37
2019-01-03T07:55:31.403Z,28.87
2019-01-03T07:58:18.115Z,28.57
2019-01-03T08:01:07.556Z,29.53
2019-01-03T08:04:01.831Z,29.10
2019-01-03T08:06:51.508Z,26.50
2019-01-03T08:09:41.248Z,26.97
2019-01-03T08:12:35.421Z,26.80
2019-01-03T08:15:22.214Z,27.30
2019-01-03T08:18:14.768Z,27.50
2019-01-03T08:21:12.327Z,25.13
2019-01-03T08:23:56.623Z,26.50
2019-01-03T08:26:53.570Z,24.80
2019-01-03T08:29:48.880Z,24.93
2019-01-03T08:32:38.585Z,24.77
2019-01-03T08:35:33.341Z,26.13
2019-01-03T08:38:27.547Z,23.70
2019-01-03T08:41:18.957Z,25.37
2019-01-03T08:44:05.417Z,26.33
2019-01-03T08:47:05.503Z,24.57
2019-01-03T08:50:07.222Z,23.63
2019-01-03T08:52:53.554Z,23.47
2019-01-03T08:55:35.474Z,25.00
2019-01-03T08:58:22.165Z,24.70
2019-01-03T09:01:08.257Z,25.00
2019-01-03T09:03:55.222Z,25.73
2019-01-03T09:06:51.953Z,24.57
2019-01-03T09:09:38.915Z,24.03
2019-01-03T09:12:33.129Z,24.27
2019-01-03T09:15:27.177Z,25.30
2019-01-03T09:18:16.653Z,24.20
2019-01-03T09:21:03.473Z,24.37
2019-01-03T09:23:57.624Z,23.20
2019-01-03T09:26:38.299Z,23.33
2019-01-03T09:29:21.197Z,23.67
2019-01-03T09:32:07.633Z,23.40
2019-01-03T09:34:54.259Z,24.13
2019-01-03T09:37:40.937Z,23.43
2019-01-03T09:40:27.476Z,23.37
2019-01-03T09:43:28.529Z,21.37
2019-01-03T09:46:00.500Z,22.53
2019-01-03T09:48:32.407Z,23.23
2019-01-03T09:51:01.630Z,22.03
2019-01-03T09:53:30.455Z,21.67
2019-01-03T09:55:59.353Z,20.93
2019-01-03T09:58:30.382Z,20.17
2019-01-03T10:01:03.377Z,21.97
2019-01-03T10:03:32.212Z,20.97
2019-01-03T10:06:08.481Z,20.63
2019-01-03T10:08:37.372Z,21.73
2019-01-03T10:11:07.689Z,20.10
2019-01-03T10:13:36.733Z,20.73
2019-01-03T10:16:05.704Z,21.17
2019-01-03T10:18:34.593Z,21.33
2019-01-03T10:21:03.581Z,21.00
2019-01-03T10:23:32.730Z,21.27
2019-01-03T10:26:01.722Z,21.50
2019-01-03T10:28:33.859Z,19.50
2019-01-03T10:31:02.945Z,20.43
2019-01-03T10:33:32.053Z,20.73
2019-01-03T10:36:03.695Z,20.17
2019-01-03T10:38:32.778Z,20.17
2019-01-03T10:41:01.761Z,20.47
2019-01-03T10:43:30.816Z,19.40
2019-01-03T10:45:59.802Z,18.77
2019-01-03T10:48:29.024Z,19.20
2019-01-03T10:51:00.975Z,19.00
2019-01-03T10:53:30.304Z,19.03
2019-01-03T10:55:59.247Z,19.87
2019-01-03T10:58:28.138Z,19.87
2019-01-03T11:00:57.054Z,20.63
2019-01-03T11:03:26.272Z,21.57
2019-01-03T11:05:58.191Z,20.47
2019-01-03T11:08:27.413Z,21.73
2019-01-03T11:11:01.971Z,21.20
2019-01-03T11:13:29.858Z,21.17
2019-01-03T11:15:59.287Z,21.37
2019-01-03T11:18:28.212Z,21.63
2019-01-03T11:20:59.349Z,19.50
2019-01-03T11:23:31.254Z,20.07
2019-01-03T11:26:00.177Z,21.37
2019-01-03T11:28:32.114Z,20.90
2019-01-03T11:31:02.111Z,20.50
2019-01-03T11:33:31.494Z,21.07
2019-01-03T11:36:03.704Z,20.87
2019-01-03T11:38:38.760Z,20.87
2019-01-03T11:41:07.750Z,20.53
2019-01-03T11:43:42.858Z,20.13
2019-01-03T11:46:11.840Z,19.43
2019-01-03T11:48:49.781Z,18.23
2019-01-03T11:51:18.798Z,19.20
2019-01-03T11:53:47.670Z,18.73
2019-01-03T11:56:16.914Z,17.40
2019-01-03T11:58:45.774Z,18.10
2019-01-03T12:01:14.930Z,17.80
2019-01-03T12:03:43.765Z,16.53
2019-01-03T12:06:12.613Z,17.00
2019-01-03T12:08:41.733Z,18.17
2019-01-03T12:11:10.831Z,18.93
2019-01-03T12:13:39.658Z,19.17
2019-01-03T12:16:11.787Z,20.63
2019-01-03T12:18:40.590Z,19.97
2019-01-03T12:21:09.561Z,20.33
2019-01-03T12:23:41.358Z,18.77
2019-01-03T12:26:10.622Z,20.00
2019-01-03T12:28:39.497Z,19.23
2019-01-03T12:31:08.388Z,18.60
2019-01-03T12:33:37.581Z,17.40
2019-01-03T12:36:06.960Z,18.00
2019-01-03T12:38:35.969Z,17.13
2019-01-03T12:41:06.417Z,15.47
2019-01-03T12:43:35.400Z,17.10
2019-01-03T12:46:04.499Z,16.90
2019-01-03T12:48:33.523Z,15.73
2019-01-03T12:51:05.301Z,15.27
2019-01-03T12:53:36.952Z,15.50
2019-01-03T12:56:15.790Z,15.00
2019-01-03T12:58:42.323Z,14.27
2019-01-03T13:01:11.269Z,13.90
2019-01-03T13:03:40.184Z,14.27
2019-01-03T13:06:09.008Z,13.37
2019-01-03T13:08:40.965Z,14.70
2019-01-03T13:11:12.746Z,13.33
2019-01-03T13:13:44.672Z,13.00
2019-01-03T13:16:13.601Z,12.13
2019-01-03T13:18:42.521Z,11.33
2019-01-03T13:21:11.721Z,11.20
2019-01-03T13:23:40.629Z,11.30
2019-01-03T13:26:09.569Z,11.73
2019-01-03T13:28:41.258Z,10.77
2019-01-03T13:31:10.241Z,12.50
2019-01-03T13:33:39.169Z,12.30
2019-01-03T13:36:08.634Z,11.63
2019-01-03T13:38:37.523Z,13.27
2019-01-03T13:41:06.506Z,12.30
2019-01-03T13:43:35.541Z,12.03
2019-01-03T13:46:04.636Z,12.97
2019-01-03T13:48:36.356Z,12.47
2019-01-03T13:51:06.810Z,12.87
2019-01-03T13:53:35.677Z,12.07
2019-01-03T13:56:04.588Z,11.90
2019-01-03T13:58:33.469Z,11.17
2019-01-03T14:01:05.386Z,11.47
2019-01-03T14:03:37.006Z,10.83
2019-01-03T14:06:11.947Z,10.93
2019-01-03T14:08:41.185Z,9.47
2019-01-03T14:11:10.065Z,10.87
2019-01-03T14:13:39.154Z,11.00
2019-01-03T14:16:08.437Z,9.83
2019-01-03T14:18:37.395Z,10.30
2019-01-03T14:21:06.570Z,9.33
2019-01-03T14:23:38.137Z,11.20
2019-01-03T14:26:10.404Z,11.27
2019-01-03T14:28:42.399Z,11.47
2019-01-03T14:31:11.387Z,12.10
2019-01-03T14:33:42.042Z,11.67
2019-01-03T14:36:10.853Z,11.30
2019-01-03T14:38:40.045Z,12.57
2019-01-03T14:41:08.927Z,11.80
2019-01-03T14:43:37.809Z,11.80
2019-01-03T14:46:09.758Z,12.50
2019-01-03T14:48:38.768Z,12.53
2019-01-03T14:51:10.789Z,12.83
2019-01-03T14:53:39.596Z,12.53
2019-01-03T14:56:08.469Z,12.27
2019-01-03T14:58:37.304Z,13.33
2019-01-03T15:01:12.351Z,11.70
2019-01-03T15:03:41.389Z,11.60
2019-01-03T15:06:10.298Z,11.83
2019-01-03T15:08:42.046Z,12.13
2019-01-03T15:11:10.975Z,11.57
2019-01-03T15:13:39.996Z,12.53
2019-01-03T15:16:09.032Z,12.30
2019-01-03T15:18:42.302Z,12.27
2019-01-03T15:21:08.713Z,12.67
2019-01-03T15:23:37.693Z,13.07
2019-01-03T15:26:06.713Z,12.43
2019-01-03T15:28:35.647Z,13.30
2019-01-03T15:31:04.932Z,13.90
2019-01-03T15:33:35.753Z,13.20
2019-01-03T15:36:04.532Z,14.07
2019-01-03T15:38:33.468Z,13.57
2019-01-03T15:41:05.240Z,12.47
2019-01-03T15:43:34.236Z,12.23
2019-01-03T15:46:03.298Z,11.97
2019-01-03T15:48:32.483Z,11.40
2019-01-03T15:51:01.405Z,12.13
2019-01-03T15:53:30.979Z,12.47
2019-01-03T15:56:00.114Z,12.47
2019-01-03T15:58:29.537Z,12.80
2019-01-03T16:00:58.476Z,13.20
2019-01-03T16:03:27.640Z,12.67
2019-01-03T16:05:56.895Z,13.63
2019-01-03T16:08:27.560Z,12.67
2019-01-03T16:11:00.666Z,12.33
2019-01-03T16:13:32.339Z,13.27
2019-01-03T16:16:01.586Z,12.73
2019-01-03T16:18:30.497Z,12.33
2019-01-03T16:20:59.451Z,13.97
2019-01-03T16:23:28.305Z,13.53
2019-01-03T16:26:00.824Z,13.30
2019-01-03T16:28:37.712Z,13.60
2019-01-03T16:31:06.623Z,14.17
2019-01-03T16:33:36.231Z,13.53
2019-01-03T16:36:05.203Z,13.00
2019-01-03T16:38:34.166Z,13.53
2019-01-03T16:41:03.186Z,12.93
2019-01-03T16:43:32.449Z,12.97
2019-01-03T16:46:01.664Z,12.80
2019-01-03T16:48:30.910Z,12.07
2019-01-03T16:50:59.873Z,12.43
2019-01-03T16:53:31.932Z,12.27
2019-01-03T16:56:07.054Z,12.50
2019-01-03T16:58:36.065Z,12.67
2019-01-03T17:01:05.072Z,13.67
2019-01-03T17:03:34.072Z,11.40
2019-01-03T17:06:05.859Z,10.20
2019-01-03T17:08:37.853Z,11.13
2019-01-03T17:11:06.924Z,10.87
2019-01-03T17:13:35.745Z,9.97
2019-01-03T17:16:04.716Z,10.80
2019-01-03T17:18:34.920Z,10.83
2019-01-03T17:21:06.742Z,10.00
2019-01-03T17:23:35.754Z,10.60
2019-01-03T17:26:05.011Z,10.37
2019-01-03T17:28:35.074Z,9.77
2019-01-03T17:31:04.070Z,11.00
2019-01-03T17:33:36.067Z,11.07
2019-01-03T17:36:06.716Z,10.27
2019-01-03T17:38:35.658Z,9.83
2019-01-03T17:41:04.939Z,10.13
2019-01-03T17:43:39.667Z,10.30
2019-01-03T17:46:08.545Z,11.07
2019-01-03T17:48:38.797Z,11.13
2019-01-03T17:51:07.838Z,10.47
2019-01-03T17:53:36.880Z,11.27
2019-01-03T17:56:05.986Z,11.27
2019-01-03T17:58:37.803Z,10.83
2019-01-03T18:01:06.765Z,11.33
2019-01-03T18:03:35.828Z,12.43
2019-01-03T18:06:04.849Z,12.47
2019-01-03T18:08:34.094Z,12.53
2019-01-03T18:11:05.864Z,11.43
2019-01-03T18:13:34.784Z,11.13
2019-01-03T18:16:03.763Z,10.73
2019-01-03T18:18:36.711Z,10.50
2019-01-03T18:21:06.367Z,10.70
2019-01-03T18:23:35.591Z,10.27
2019-01-03T18:26:04.635Z,9.77
2019-01-03T18:28:33.655Z,10.00
2019-01-03T18:31:04.469Z,9.53
2019-01-03T18:33:33.400Z,9.97
2019-01-03T18:36:02.415Z,10.40
2019-01-03T18:38:31.213Z,10.30
2019-01-03T18:41:00.104Z,9.00
2019-01-03T18:43:29.000Z,10.07
2019-01-03T18:45:57.973Z,10.93
2019-01-03T18:48:26.870Z,10.30
2019-01-03T18:50:57.297Z,12.47
2019-01-03T18:53:26.133Z,11.77
2019-01-03T18:55:55.246Z,11.77
2019-01-03T18:58:28.662Z,11.47
2019-01-03T19:00:57.731Z,12.80
2019-01-03T19:03:26.678Z,13.03
2019-01-03T19:05:55.497Z,13.50
2019-01-03T19:08:24.336Z,13.13
2019-01-03T19:10:53.286Z,13.60
2019-01-03T19:13:22.173Z,13.93
2019-01-03T19:15:53.894Z,14.87
2019-01-03T19:18:22.728Z,13.23
2019-01-03T19:20:52.244Z,11.90
2019-01-03T19:23:21.293Z,13.23
2019-01-03T19:25:50.409Z,10.27
2019-01-03T19:28:19.288Z,10.47
2019-01-03T19:31:03.185Z,10.73
2019-01-03T19:33:44.587Z,11.60
2019-01-03T19:36:34.858Z,11.53
2019-01-03T19:39:04.847Z,10.77
2019-01-03T19:41:33.668Z,10.53
2019-01-03T19:44:02.821Z,9.33
2019-01-03T19:46:31.736Z,9.80
2019-01-03T19:49:00.598Z,10.10
2019-01-03T19:51:29.822Z,8.67
2019-01-03T19:53:58.765Z,8.87
2019-01-03T19:56:27.781Z,9.40
2019-01-03T19:58:56.771Z,10.17
2019-01-03T20:01:25.824Z,9.37
2019-01-03T20:03:54.888Z,8.93
2019-01-03T20:06:23.765Z,8.77
2019-01-03T20:08:52.592Z,8.93
2019-01-03T20:11:21.614Z,9.03
2019-01-03T20:13:50.599Z,9.80
2019-01-03T20:16:19.407Z,8.37
2019-01-03T20:18:48.503Z,9.17
2019-01-03T20:21:17.469Z,10.13
2019-01-03T20:23:47.928Z,9.13
2019-01-03T20:26:16.886Z,8.10
2019-01-03T20:28:45.893Z,8.80
2019-01-03T20:31:14.717Z,10.33
2019-01-03T20:33:43.698Z,12.00
2019-01-03T20:36:12.849Z,9.40
2019-01-03T20:38:42.034Z,14.37
2019-01-03T20:41:11.017Z,13.70
2019-01-03T20:43:40.264Z,15.27
2019-01-03T20:46:09.246Z,12.13
2019-01-03T20:48:38.625Z,11.63
2019-01-03T20:51:07.609Z,11.00
2019-01-03T20:53:36.599Z,11.57
2019-01-03T20:56:05.867Z,12.33
2019-01-03T20:58:34.716Z,11.73
2019-01-03T21:01:03.969Z,11.33
2019-01-03T21:03:32.881Z,13.03
2019-01-03T21:06:01.985Z,12.00
2019-01-03T21:08:31.547Z,11.73
2019-01-03T21:11:01.186Z,13.10
2019-01-03T21:13:33.382Z,14.13
2019-01-03T21:16:02.296Z,14.47
2019-01-03T21:18:31.458Z,15.40
2019-01-03T21:21:00.426Z,15.57
2019-01-03T21:23:29.410Z,18.20
2019-01-03T21:25:58.369Z,16.47
2019-01-03T21:28:27.565Z,15.00
2019-01-03T21:30:56.566Z,15.53
2019-01-03T21:33:25.881Z,15.07
2019-01-03T21:35:54.888Z,15.17
2019-01-03T21:38:23.708Z,14.23
2019-01-03T21:40:52.746Z,15.90
2019-01-03T21:43:26.380Z,15.47
2019-01-03T21:46:01.100Z,15.70
2019-01-03T21:48:30.005Z,13.90
2019-01-03T21:50:58.915Z,14.10
2019-01-03T21:53:27.959Z,13.83
2019-01-03T21:56:00.125Z,15.00
2019-01-03T21:58:29.210Z,15.43
2019-01-03T22:00:58.413Z,15.43
2019-01-03T22:03:33.305Z,14.03
2019-01-03T22:06:03.837Z,14.37
2019-01-03T22:08:32.857Z,13.43
2019-01-03T22:11:07.810Z,14.70
2019-01-03T22:13:37.034Z,13.53
2019-01-03T22:16:06.505Z,14.63
2019-01-03T22:18:35.328Z,13.60
2019-01-03T22:21:04.225Z,14.70
2019-01-03T22:23:33.075Z,14.93
2019-01-03T22:26:01.981Z,16.90
2019-01-03T22:28:30.789Z,18.90
2019-01-03T22:31:02.833Z,15.60
2019-01-03T22:33:42.268Z,15.23
2019-01-03T22:36:11.306Z,15.00
2019-01-03T22:38:43.225Z,13.67
2019-01-03T22:41:12.030Z,15.03
2019-01-03T22:43:46.846Z,14.13
2019-01-03T22:46:18.402Z,16.40
2019-01-03T22:48:47.217Z,19.17
2019-01-03T22:51:20.119Z,16.20
2019-01-03T22:53:46.675Z,16.97
2019-01-03T22:56:22.031Z,16.20
2019-01-03T22:58:55.113Z,18.13
2019-01-03T23:01:24.179Z,15.77
2019-01-03T23:03:53.445Z,15.83
2019-01-03T23:06:22.401Z,16.37
2019-01-03T23:08:54.039Z,18.73
2019-01-03T23:11:22.914Z,19.67
2019-01-03T23:13:54.590Z,17.37
2019-01-03T23:16:23.881Z,16.20
2019-01-03T23:18:53.225Z,17.27
2019-01-03T23:21:22.034Z,17.67
2019-01-03T23:23:50.850Z,20.13
2019-01-03T23:26:19.713Z,16.77
2019-01-03T23:28:50.782Z,13.97
2019-01-03T23:31:19.629Z,14.33
2019-01-03T23:33:48.732Z,13.43
2019-01-03T23:36:17.553Z,13.50
2019-01-03T23:38:46.457Z,12.73
2019-01-03T23:41:15.343Z,12.70
2019-01-03T23:43:56.070Z,13.37
2019-01-03T23:46:32.505Z,13.30
2019-01-03T23:49:01.945Z,13.03
2019-01-03T23:51:31.349Z,12.60
2019-01-03T23:54:03.046Z,10.97
2019-01-03T23:56:31.921Z,8.60
2019-01-03T23:59:00.921Z,7.17
